Boston, Massachusetts
Traffic Map
Current Weather Conditions
Boston, Massachusetts
Few Clouds
Few Clouds
11°
Feels Like: 11°
Wind Chill: 11° Ceiling: Unl
Heat Index: 11° Visibility: 9mi
Dew Point: Wind: 5mph
Humidity: 92% Direction: 210° (SSW)
Pressure: 29.44in Gusts: 0mph
Raw Report DataKBOS 230754Z 21004KT 9SM FEW100 11/09 A2944 RMK AO2 SLP967 T01060094
Traffic Incident Summary
Active as of:
Severity:
Category:
InformationThere was an issue retrieving the traffic information for this location. Please try a different location or try again shortly.
Advertisements
At Last! Intellicast now available for iPhone and Android